Timeline UpdatesTrip UpdatesNews PostsPvt PostsTravel TipsAdmin PostsConv PostsFollowed PostsChat RequestsBlog PostsPNR Posts

Disclaimer
Search
 
 
Thu Jul 31, 2014 06:49:02 ISTHomeTrainsΣChainsAtlasPNRForumGalleryNewsFAQTripsMembersLoginFeedback
No Recent News for this Train
Other Trains in the News **new
Latest...
..
Fri Jul 11, 2014 (12:58PM)
⇐ Return Journey: Train# 19166

19165/Sabarmati Express

Feb 01 2014 (10:56AM)
Change Departure Station:
Change Arrival Station:
Post a Train Travel TipPost a Train Travel Tip **new
Post a Comment/Question/Picture/VideoPost a Comment/Question/Picture/Video
Pantry/Catering
✕ NO Pantry Car
✕ NO Catering
Loco/Rake Reversals
BRC/Vadodara Junction (7); SHG/Shahganj Junction (4); BINA/Bina Junction (4); SPJ/Samastipur Junction (9);
RSA - Rake Sharing
19165/19166/19167/19168 has RSA
Rake/Coach Composition
LOCO-SLR-GS-GS-A1-B1-B2-S1-S2-S3-S4-S5-S6-S7-S8-S9-S10-S11-S12-S13-GS-GS-SLR
Loco
ADI-RTM :BRC WAP4E RTM-DBG :RTM WDM3A
News    PNR    Forum    Time-Table    Availability    Fare Chart    Map    Arr/Dep History    Trips    Gallery    ΣChains    X/O    Timeline    
Travel Time: 1h 55m    4 halts    Distance: 100 km    Avg Speed: 52 km/hr
Type: Mail/Express
Zone: WR/Western
Departs @ 20:50 (Avg 18m late)
Platform# 2
S  W F 
Ahmedabad Junction/ADI 
Arrives @ 22:45 (Avg 37m late)
Platform# 7
S  W F 
Vadodara Junction/BRC 

4 halts. 21 intermediate Stations between Ahmedabad Junction and Vadodara Junction

Show ALL intermediate Stations  Show Old Time-Table

#CodeStation NameX/OArrivesAvgDepartsAvgHaltPFDay#KmSpeedElevZoneAddress
1ADI»Ahmedabad Junction (12)»  -20:50+18210.02751mWRAhmedabad, Gujarat
2MANManinagar (2)X  20:57+3720:59+372m213.26250mWRAhmadabad, Gujarat
3MHDMahemdavad Kheda Road (4)X  21:23+3721:25+372m2128.07537mWRMahemdavad, Gujarat
4NDNadiad Junction (4)  21:39+4121:41+412m1145.66237mWRNadiad, Gujarat
5ANNDAnand Junction (6)X  21:59+4422:01+442m1164.14944mWRAnand, Gujarat
6BRC•Vadodara Junction (7)•XO22:45+3723:10+3625m7199.85336mWRVadodara 390005, Gujarat
7GDAGodhra Junction (3)X  00:33+3000:35+302m--2173.780122mWRGodhra, Gujarat
8DHDDahod (3)X  01:30+5701:32+572m--2246.890313mWRDahod, Gujarat
9MGNMeghnagar (3)X  01:54+1:0201:56+1:032m--2279.954317mWRJhabua, Madhya Pradesh
10RTMRatlam Junction (7)X  03:25+5203:40+5815m52360.275495mWRRatlam, Madhya Pradesh
11KUHKhachrod (2)  04:02+1:1004:04+1:112m--2387.932497mWRUjjain, Madhya Pradesh
12NADNagda Junction (4)  04:30+4204:35+445m--2401.761468mWRNagda, Madhya Pradesh
13UJNUjjain Junction (8)X  05:30+5605:50+4720m--2457.380492mWRUjjain 456001, Madhya Pradesh
14TANTarana Road  06:15+5106:17+472m--2490.716498mWRMaksi, Madhya Pradesh
15MKCMaksi Junction (3)  06:53+2706:55+282m--2500.369513mWRMakshi, Madhya Pradesh
16SFYShajapur  07:19+3907:21+442m--2528.155450mWCRShajapur, Madhya Pradesh
17SFWSarangpur  07:50+4107:52+422m--2554.663422mWCRSarangpur, Madhya Pradesh
18PFRPachor Road  08:23+4208:25+432m--2587.363419mWCRPachore, Madhya Pradesh
19BRRGBiyavra Rajgarh  08:53+4708:55+472m--2616.542423mWCRBiaora, Madhya Pradesh
20CBKChachaura Binaganj (1)  09:38+4509:40+572m12646.949435mWCRGuna, Madhya Pradesh
21KHRJKumbhraj (1)  10:08+5210:10+552m12669.6143401mWCRManpura, Madhya Pradesh
22VJPVijay PurX  10:18+1:0610:20+1:062m--2688.721420mWCRVijaipur, Madhya Pradesh
23RTARuthiyai Junction (2)  10:35+1:0010:40+1:015m--2693.920414mWCRRuthiyai, Madhya Pradesh
24GUNAGuna Junction (3)X  11:40+3411:55+3315m22714.262477mWCRJn Point Indore/Gwalior/Bina/Kota, Madhya Pradesh
25ASKNAshok Nagar (2)  12:38+3912:40+402m--2758.372502mWCRAshoknagar, Madhya Pradesh
26PIAPipraigaon (3)X  13:02+4313:04+432m12784.746451mWCRAshoknagar, Madhya Pradesh
27MNVMungaoli (2)  13:29+3913:31+382m--2804.036403mWCRAshoknagar, Madhya Pradesh
28BINABina Junction (4)X14:20+2914:40+2820m42833.056414mWCRJn Pt - KATNI/GUNA/ BPL/JHS, Madhya Pradesh
29DUADhaura (3)X  15:17+4715:19+492m--2867.663407mNCRDhaura Tanda, Madhya Pradesh
30JLNJakhalaun (3)  15:30+5115:32+522m--2879.277394mNCRLalitpur(05176-272220), Uttar Pradesh
31LARLalitpur (3)X  15:45+5315:47+582m32896.092373mNCRLalitpur, Uttar Pradesh
32TBTTalbahat (4)X  16:13+1:0816:15+1:092m32935.871314mNCRKhaniyadhana Station Rd, Madhya Pradesh
33BABBabina (3)  16:36+1:1616:38+1:172m22960.841285mNCRBabina, Uttar Pradesh
34JHSJhansi Junction (7)  17:15+1:0017:30+1:0515m--2986.379259mNCRJhansi, Uttar Pradesh
35CGNChirgaon  17:54+1:3617:56+1:392m--21018.074192mNCRChirgaon, Uttar Pradesh
36MOTHMoth  18:15+1:4718:17+1:482m--21041.582175mNCRJhansi, Uttar Pradesh
37AITAit Junction (2)  18:42+1:5518:44+1:562m121075.659154mNCROrai(05162-252206), Uttar Pradesh
38ORAIOrai (3)X  19:09+1:4619:11+1:492m321100.273139mNCROrai(05162-252206), Uttar Pradesh
39KPIKalpiX  19:38+2:0419:40+2:052m--21133.048114mNCRKalpi Orai(05162-252206), Uttar Pradesh
40CNHChaunrah  19:48-19:50-2m--21139.365134mNCRNational Highway 25, Uttar Pradesh
41PHNPokhrayan (2)X  19:58+2:0520:00+2:062m121148.118133mNCRPukhrayan, Uttar Pradesh
42BZMBhimsen (1)  22:28+2722:30+302m121192.421136mNCRKanpur, Uttar Pradesh
43CNBKanpur Central (10)X  23:10+2723:20+2710m--21206.550128mNCRKANPUR-208 001, Uttar Pradesh
44ONUnnao Junction (5)X  23:41+4523:43+472m--21223.949129mNRUnnao, Uttar Pradesh
45LKOLucknow Charbagh (9)X  00:50+4601:05+4815m331278.540123mNR226004, Uttar Pradesh
46BBKBarabanki Junction (4)  01:48+5201:50+532m--31307.171122mNRPin-225001, Uttar Pradesh
47DYDDaryabad  02:22+1:0302:24+1:032m--31345.145116mNRFaizabad Rd, Uttar Pradesh
48RDLRudauli (2)  02:55+5702:57+572m--31368.234112mNRRudauli, Uttar Pradesh
49FDFaizabad Junction (5)  04:05+4204:10+515m--31406.327104mNRFaizabad, Uttar Pradesh
50AYAyodhya Junction (3)  04:25+5704:27+572m--31413.17098mNRAyodhya, Uttar Pradesh
51GGJGoshainGanj (3)X  04:54+1:0604:56+1:072m--31444.84498mNRGoshainganj, Uttar Pradesh
52ABPAkbarpur (2)  05:26+5905:28+1:002m--31467.06492mNRAkbarpur, Uttar Pradesh
53MLPRMalipur (2)  05:46+1:0005:48+1:012m--31486.13692mNRMalipur, Uttar Pradesh
54SHGShahganj Junction (4)06:30+4907:10+3040m--31511.16190mNRShahganj, Uttar Pradesh
55KRNDKhorason Road (2)  07:31+4507:33+452m--31532.24885mNERUttar Pradesh 276304 ?, Uttar Pradesh
56SMZSarai Mir (2)  07:44+4507:46+452m--31541.14687mNERTowa Ahirana, Uttar Pradesh
57AMHAzamgarh (2)  08:20+4208:25+425m131567.03081mNERAzamgarh, Uttar Pradesh
58MMAMuhammadabad (2)  09:08+3409:10+342m--31588.62980mNERMuhammadabad Marg, Uttar Pradesh
59MAUMau Junction (4)X  09:55+3210:10+3215m--31610.23975mNERMau., Uttar Pradesh
60IAAIndara Junction (3)  10:22+3310:24+342m--31618.15974mNERMau, Uttar Pradesh
61RSRRasra (2)X  10:53+4410:55+472m--31646.43970mNERRasra, Uttar Pradesh
62BUIBallia (3)  11:45+4411:50+465m--31679.17362mNERBallia, Uttar Pradesh
63SIPSuraimanpur  12:20+5712:22+572m--31715.53060mNERBallia, Uttar Pradesh
64CPRChhapra Junction (6)X  13:20+4713:40+5320m--31744.74358mNERDistt: Saran, Bihar
65SEESonpur Junction (4)X  14:55+1:1715:04+1:419m--31798.82556mECRSaran, Bihar
66HJPHajipur Junction (3)  15:17+1:4015:19+1:452m--31804.36155mECR06224-272230, Bihar
67MFPMuzaffarpur Junction (6)X  16:12+2:4216:22+2:4410m131858.14657mECRMuzaffarpur, Bihar
68SPJSamastipur Junction (9)XO17:30+2:4117:58+2:3928m--31910.23255mECRSamastipur, Bihar
69LSILaheria Sarai (1)  18:58+2:5019:00+2:512m131942.62052mECRDarbhanga, Bihar
70DBGDarbhanga Junction (5)  19:15+2:38-131947.6-54mECRDarbhanga, Bihar
Scroll to Top
Scroll to Bottom